Time;durP1;ratioP1;P1;durP2;ratioP2;P2;SDS_P1;SDS_P2;PMS_P1;PMS_P2;Temp;Humidity;BMP_temperature;BMP_pressure;BME280_temperature;BME280_humidity;BME280_pressure;Samples;Min_cycle;Max_cycle;Signal;HPM_P1;HPM_P2
2022/08/20 00:00:27;;;;;;;11.40;9.00;;;;;;;21.67;67.58;97761.09;8285222;28;20249;-72
2022/08/20 00:04:31;;;;;;;10.63;9.53;;;;;;;21.56;68.21;97772.63;8285142;28;20240;-72
2022/08/20 00:08:34;;;;;;;11.77;10.67;;;;;;;21.03;71.79;97773.91;8284724;28;20229;-72
2022/08/20 00:12:38;;;;;;;11.40;10.33;;;;;;;21.20;70.21;97771.56;8284728;28;20248;-72
2022/08/20 00:16:41;;;;;;;12.00;10.70;;;;;;;21.26;70.11;97776.25;8284743;28;20233;-72
2022/08/20 00:20:48;;;;;;;12.17;10.97;;;;;;;21.11;70.85;97778.47;8284601;28;20235;-72
2022/08/20 00:24:50;;;;;;;11.97;10.77;;;;;;;21.40;69.39;97775.84;8283894;28;20229;-72
2022/08/20 00:28:53;;;;;;;13.87;12.37;;;;;;;20.77;72.27;97776.25;8284265;28;20233;-72
2022/08/20 00:32:58;;;;;;;14.63;13.13;;;;;;;20.95;71.72;97772.94;8284182;28;20233;-72
2022/08/20 00:37:02;;;;;;;15.67;13.33;;;;;;;21.23;70.44;97772.09;8283996;28;20239;-72
2022/08/20 00:41:07;;;;;;;15.47;13.03;;;;;;;21.16;70.42;97771.00;8282997;28;20232;-72
2022/08/20 00:45:10;;;;;;;14.63;13.10;;;;;;;21.23;70.14;97769.47;8283925;28;20233;-72
2022/08/20 00:49:17;;;;;;;14.03;12.73;;;;;;;21.39;69.38;97775.97;8283821;28;20236;-72
2022/08/20 00:53:22;;;;;;;14.07;12.77;;;;;;;21.41;69.24;97771.38;8283663;28;20252;-72
2022/08/20 00:57:28;;;;;;;15.93;13.83;;;;;;;20.99;71.75;97776.97;8283540;28;20225;-72
2022/08/20 01:01:52;;;;;;;16.53;14.83;;;;;;;21.16;70.53;97776.25;8282930;28;20225;-72
2022/08/20 01:05:58;;;;;;;14.73;13.20;;;;;;;21.28;69.57;97777.78;8283225;28;20229;-72
2022/08/20 01:10:05;;;;;;;15.03;13.20;;;;;;;21.38;69.20;97782.19;8282993;28;20234;-72
2022/08/20 01:14:22;;;;;;;16.30;14.30;;;;;;;21.26;69.81;97779.72;8282956;28;20241;-72
2022/08/20 01:18:26;;;;;;;17.27;15.57;;;;;;;21.00;71.28;97784.72;8283107;28;20236;-72
2022/08/20 01:26:56;;;;;;;21.23;16.70;;;;;;;21.13;71.15;97783.59;8282045;28;20225;-72
2022/08/20 01:30:59;;;;;;;17.43;15.57;;;;;;;21.35;70.28;97782.50;8282589;28;20232;-72
2022/08/20 01:35:02;;;;;;;20.27;16.17;;;;;;;21.42;69.82;97781.78;8282801;28;20235;-72
2022/08/20 01:39:07;;;;;;;18.37;16.23;;;;;;;21.39;70.08;97782.06;8282465;28;20429;-72
2022/08/20 01:43:12;;;;;;;19.30;15.80;;;;;;;21.31;70.65;97783.75;8282362;28;20229;-72
2022/08/20 01:47:19;;;;;;;18.50;16.40;;;;;;;21.19;70.44;97770.72;8282354;28;20250;-72
2022/08/20 01:51:26;;;;;;;18.13;15.43;;;;;;;21.29;70.03;97776.81;8281863;28;20239;-72
2022/08/20 01:55:29;;;;;;;15.67;14.07;;;;;;;21.45;69.50;97781.53;8281947;28;20233;-72
2022/08/20 01:59:33;;;;;;;15.70;14.17;;;;;;;21.47;69.16;97779.56;8281621;28;20263;-72
2022/08/20 02:03:36;;;;;;;15.47;13.80;;;;;;;21.54;68.99;97787.75;8282039;28;20256;-72
2022/08/20 02:07:45;;;;;;;15.83;13.90;;;;;;;21.54;68.78;97786.94;8281956;28;20235;-73
2022/08/20 02:11:48;;;;;;;15.67;13.80;;;;;;;21.48;69.23;97786.53;8281162;28;20240;-72
2022/08/20 02:15:53;;;;;;;15.47;13.87;;;;;;;21.55;68.57;97788.59;8281870;28;20432;-72
2022/08/20 02:19:59;;;;;;;17.80;14.63;;;;;;;21.50;68.87;97789.00;8281636;28;20233;-72
2022/08/20 02:24:02;;;;;;;15.47;13.87;;;;;;;21.45;69.15;97784.16;8281462;28;20245;-72
2022/08/20 02:28:08;;;;;;;15.00;13.50;;;;;;;21.52;68.58;97781.81;8281457;28;20234;-72
2022/08/20 02:32:12;;;;;;;14.50;12.63;;;;;;;21.63;68.67;97786.91;8281448;28;20238;-72
2022/08/20 02:36:36;;;;;;;19.17;13.60;;;;;;;21.53;68.51;97782.63;8281564;28;20240;-72
2022/08/20 02:40:40;;;;;;;14.93;13.50;;;;;;;21.35;69.00;97779.84;8281432;28;20233;-72
2022/08/20 02:44:42;;;;;;;16.37;14.20;;;;;;;21.46;68.72;97785.84;8281095;28;20423;-72
2022/08/20 02:48:47;;;;;;;13.90;12.70;;;;;;;21.54;68.29;97782.50;8281114;28;20233;-72
2022/08/20 02:52:50;;;;;;;14.97;12.87;;;;;;;21.35;68.53;97780.69;8280657;28;20229;-72
2022/08/20 02:56:54;;;;;;;14.10;12.80;;;;;;;21.51;68.00;97784.56;8281120;28;20428;-72
2022/08/20 03:00:57;;;;;;;13.07;11.90;;;;;;;21.47;67.96;97782.22;8280879;28;20232;-72
2022/08/20 03:05:01;;;;;;;13.07;11.73;;;;;;;21.54;68.32;97787.75;8284174;28;20225;-72
2022/08/20 03:09:05;;;;;;;14.00;12.43;;;;;;;21.52;67.95;97787.06;8286808;28;20232;-72
2022/08/20 03:13:11;;;;;;;13.83;12.43;;;;;;;21.47;67.88;97781.38;8286419;28;20256;-72
2022/08/20 03:17:13;;;;;;;13.47;12.27;;;;;;;21.47;68.25;97773.47;8286439;28;20229;-72
2022/08/20 03:21:18;;;;;;;13.37;12.10;;;;;;;21.47;68.11;97776.13;8286157;28;20248;-72
2022/08/20 03:25:21;;;;;;;15.80;12.20;;;;;;;21.38;68.23;97775.16;8286007;28;20233;-72
2022/08/20 03:29:24;;;;;;;14.17;12.70;;;;;;;21.41;67.96;97769.56;8286057;28;20236;-72
2022/08/20 03:33:27;;;;;;;15.30;13.43;;;;;;;21.43;68.14;97764.16;8285839;28;20248;-72
2022/08/20 03:37:32;;;;;;;15.57;12.23;;;;;;;21.38;68.56;97774.28;8285675;28;20233;-72
2022/08/20 03:41:35;;;;;;;13.53;12.17;;;;;;;21.40;68.50;97767.94;8285749;28;20229;-72
2022/08/20 03:45:39;;;;;;;13.33;12.00;;;;;;;21.42;68.32;97771.25;8285745;28;20240;-72
2022/08/20 03:49:42;;;;;;;14.20;12.57;;;;;;;21.44;68.20;97773.78;8285537;28;20559;-72
2022/08/20 03:53:46;;;;;;;13.93;12.50;;;;;;;21.36;68.36;97778.88;8285442;28;20409;-72
2022/08/20 03:57:51;;;;;;;14.27;12.77;;;;;;;21.35;68.86;97783.31;8284979;28;20221;-72
2022/08/20 04:01:55;;;;;;;15.10;13.70;;;;;;;21.25;68.30;97791.22;8285189;28;20359;-72
2022/08/20 04:05:58;;;;;;;15.10;13.50;;;;;;;21.29;68.54;97795.25;8284985;28;20245;-72
2022/08/20 04:10:05;;;;;;;16.07;14.57;;;;;;;21.26;68.21;97798.13;8284825;28;20221;-72
2022/08/20 04:14:09;;;;;;;16.77;14.97;;;;;;;21.29;68.23;97795.25;8284351;28;20236;-72
2022/08/20 04:18:13;;;;;;;15.43;13.63;;;;;;;21.29;68.13;97799.69;8284591;28;20229;-72
2022/08/20 04:22:16;;;;;;;16.57;15.07;;;;;;;21.24;68.72;97801.91;8284623;28;20229;-72
2022/08/20 04:26:20;;;;;;;16.37;14.87;;;;;;;21.31;68.60;97810.91;8283497;28;20241;-72
2022/08/20 04:30:23;;;;;;;16.00;14.37;;;;;;;21.32;68.62;97822.28;8284034;28;20244;-72
2022/08/20 04:34:26;;;;;;;16.07;14.57;;;;;;;21.27;68.82;97822.69;8283637;28;20230;-72
2022/08/20 04:38:30;;;;;;;16.70;15.00;;;;;;;21.34;68.55;97823.78;8283829;28;20229;-72
2022/08/20 04:42:54;;;;;;;16.23;14.77;;;;;;;21.33;69.17;97829.22;8283337;28;20234;-72
2022/08/20 04:46:57;;;;;;;17.07;15.37;;;;;;;21.35;68.67;97829.91;8283526;28;20424;-73
2022/08/20 04:51:01;;;;;;;16.73;15.03;;;;;;;21.42;68.62;97828.38;8283408;28;20235;-73
2022/08/20 04:55:06;;;;;;;16.83;15.13;;;;;;;21.34;69.38;97836.13;8283554;28;20237;-72
2022/08/20 04:59:11;;;;;;;17.67;16.07;;;;;;;21.24;69.08;97836.13;8283170;28;20229;-72
2022/08/20 05:03:14;;;;;;;17.33;15.53;;;;;;;21.45;68.96;97825.47;8283020;28;20235;-72
2022/08/20 05:07:18;;;;;;;18.07;16.27;;;;;;;21.36;68.62;97828.91;8283229;28;20233;-72
2022/08/20 05:11:21;;;;;;;17.97;16.10;;;;;;;21.31;69.05;97839.06;8282961;28;20229;-72
2022/08/20 05:15:39;;;;;;;19.00;17.13;;;;;;;21.28;68.91;97843.63;8282899;28;20375;-72
2022/08/20 05:19:42;;;;;;;18.63;16.20;;;;;;;21.29;68.79;97844.44;8282559;28;20243;-72
2022/08/20 05:23:45;;;;;;;19.13;17.30;;;;;;;21.33;68.96;97845.00;8282530;28;20240;-72
2022/08/20 05:27:47;;;;;;;19.57;17.60;;;;;;;21.38;68.89;97841.00;8281344;28;20242;-72
2022/08/20 05:31:51;;;;;;;17.63;15.90;;;;;;;21.47;69.02;97839.34;8282344;28;20516;-72
2022/08/20 05:35:55;;;;;;;17.27;15.30;;;;;;;21.46;69.11;97841.16;8282267;28;20229;-73
2022/08/20 05:39:58;;;;;;;16.60;15.10;;;;;;;21.44;68.96;97844.91;8282283;28;20511;-72
2022/08/20 05:44:01;;;;;;;17.43;15.63;;;;;;;21.47;68.83;97845.44;8282130;28;20296;-72
2022/08/20 05:48:06;;;;;;;18.40;16.60;;;;;;;21.53;68.58;97840.59;8281698;28;20233;-72
2022/08/20 05:52:09;;;;;;;19.83;17.73;;;;;;;21.51;68.25;97842.53;8281801;28;20233;-73
2022/08/20 05:56:12;;;;;;;20.33;18.43;;;;;;;21.50;68.54;97843.53;8281849;28;20240;-72
2022/08/20 06:00:15;;;;;;;20.70;18.90;;;;;;;21.57;68.16;97842.81;8281805;28;20371;-72
2022/08/20 06:04:26;;;;;;;22.17;19.63;;;;;;;21.62;68.02;97845.00;8281722;28;20240;-72
2022/08/20 06:08:29;;;;;;;20.10;18.17;;;;;;;21.77;67.46;97853.31;8281648;28;20508;-72
2022/08/20 06:12:32;;;;;;;20.67;18.77;;;;;;;21.78;67.28;97858.47;8281608;28;20247;-72
2022/08/20 06:16:35;;;;;;;22.33;19.40;;;;;;;21.80;67.74;97860.94;8281804;28;20532;-72
2022/08/20 06:20:40;;;;;;;20.47;18.20;;;;;;;21.83;67.42;97861.47;8281368;28;20228;-72
2022/08/20 06:24:43;;;;;;;19.30;17.30;;;;;;;21.85;67.57;97869.25;8281281;28;20248;-72
2022/08/20 06:28:46;;;;;;;20.40;17.87;;;;;;;21.79;66.94;97864.56;8281402;28;20240;-72
2022/08/20 06:32:50;;;;;;;18.43;16.63;;;;;;;21.82;67.48;97870.38;8280678;28;20244;-72
2022/08/20 06:36:54;;;;;;;18.63;16.63;;;;;;;21.86;67.15;97871.75;8281259;28;20226;-72
2022/08/20 06:40:56;;;;;;;18.13;16.23;;;;;;;21.89;66.89;97873.25;8287516;28;20236;-72
2022/08/20 06:45:03;;;;;;;18.83;16.90;;;;;;;21.86;67.16;97870.94;8287389;28;20241;-72
2022/08/20 06:49:07;;;;;;;21.20;16.77;;;;;;;21.92;66.96;97872.16;8287070;28;20225;-72
2022/08/20 06:53:13;;;;;;;23.60;16.90;;;;;;;21.90;67.74;97877.56;8287160;28;20233;-72
2022/08/20 06:57:16;;;;;;;18.83;17.20;;;;;;;21.95;67.66;97875.34;8287061;28;20236;-72
2022/08/20 07:01:19;;;;;;;18.27;15.60;;;;;;;22.08;67.51;97884.75;8286879;28;20297;-72
2022/08/20 07:05:22;;;;;;;18.17;16.43;;;;;;;22.16;67.27;97890.13;8286794;28;20237;-72
2022/08/20 07:09:27;;;;;;;18.23;16.13;;;;;;;22.14;66.56;97892.94;8286823;28;20230;-72
2022/08/20 07:13:30;;;;;;;18.43;15.87;;;;;;;22.13;67.44;97893.91;8286491;28;20349;-72
2022/08/20 07:17:32;;;;;;;17.43;15.73;;;;;;;22.25;66.91;97891.94;8286426;28;20240;-72
2022/08/20 07:21:35;;;;;;;15.53;13.93;;;;;;;22.45;66.39;97895.38;8285866;28;20233;-72
2022/08/20 07:25:41;;;;;;;17.17;13.80;;;;;;;22.50;65.56;97900.19;8286201;28;20244;-73
2022/08/20 07:34:05;;;;;;;13.70;12.30;;;;;;;22.44;65.23;97883.13;8285514;28;20232;-72
2022/08/20 07:38:14;;;;;;;16.07;13.87;;;;;;;22.31;65.55;97882.63;8285729;28;20225;-72
2022/08/20 07:42:18;;;;;;;14.83;13.30;;;;;;;22.36;66.40;97881.22;8285992;28;20413;-72
2022/08/20 07:46:21;;;;;;;15.53;13.70;;;;;;;22.37;66.17;97888.16;8285592;28;20232;-72
2022/08/20 07:50:26;;;;;;;14.77;13.30;;;;;;;22.43;65.64;97892.88;8284725;28;20225;-72
2022/08/20 07:54:29;;;;;;;15.57;13.90;;;;;;;22.32;66.40;97892.22;8285415;28;20241;-72
2022/08/20 07:58:35;;;;;;;15.93;14.30;;;;;;;22.28;66.17;97889.03;8285338;28;20288;-72
2022/08/20 08:02:38;;;;;;;16.60;14.90;;;;;;;22.18;66.27;97891.66;8285076;28;20234;-72
2022/08/20 08:06:44;;;;;;;14.97;13.27;;;;;;;22.42;64.94;97891.19;8285054;28;20230;-73
2022/08/20 08:10:48;;;;;;;15.33;13.73;;;;;;;22.58;64.59;97892.38;8285031;28;20233;-72
2022/08/20 08:14:54;;;;;;;15.60;13.80;;;;;;;22.63;64.12;97901.50;8284393;28;20233;-72
2022/08/20 08:18:57;;;;;;;14.47;12.97;;;;;;;22.63;63.62;97895.41;8284584;28;20240;-72
2022/08/20 08:23:00;;;;;;;15.10;12.80;;;;;;;22.74;63.66;97908.41;8284226;28;20233;-72
2022/08/20 08:27:03;;;;;;;15.53;12.43;;;;;;;22.88;63.35;97903.63;8284027;28;20233;-72
2022/08/20 08:31:08;;;;;;;18.07;13.00;;;;;;;22.85;63.34;97907.41;8284234;28;20229;-73
2022/08/20 08:35:11;;;;;;;16.40;13.50;;;;;;;23.02;63.86;97911.06;8284024;28;20234;-72
2022/08/20 08:39:13;;;;;;;15.03;13.43;;;;;;;23.09;62.78;97911.31;8283997;28;20232;-72
2022/08/20 08:43:19;;;;;;;14.73;12.77;;;;;;;23.18;62.77;97919.19;8283830;28;20229;-72
2022/08/20 08:47:28;;;;;;;17.00;12.60;;;;;;;23.29;63.05;97934.00;8284006;28;20475;-73
2022/08/20 08:51:35;;;;;;;15.43;13.83;;;;;;;23.11;62.56;97933.94;8283794;28;20234;-72
2022/08/20 08:55:38;;;;;;;14.60;13.17;;;;;;;23.38;62.88;97930.47;8283594;28;20243;-72
2022/08/20 08:59:41;;;;;;;14.43;12.63;;;;;;;23.60;61.35;97931.81;8282981;28;20230;-73
2022/08/20 09:04:06;;;;;;;14.47;12.93;;;;;;;23.72;61.01;97932.44;8281971;28;20240;-72
2022/08/20 09:08:13;;;;;;;18.20;12.20;;;;;;;23.86;60.43;97940.84;8283346;28;20236;-72
2022/08/20 09:12:20;;;;;;;13.93;12.13;;;;;;;23.87;59.39;97945.94;8282990;28;20293;-72
2022/08/20 09:16:27;;;;;;;13.83;12.23;;;;;;;23.92;59.56;97948.16;8283118;28;20242;-72
2022/08/20 09:20:52;;;;;;;14.37;12.97;;;;;;;23.85;60.38;97947.91;8282276;28;20238;-72
2022/08/20 09:24:55;;;;;;;12.60;11.40;;;;;;;23.89;59.80;97953.75;8282566;28;20251;-73
2022/08/20 09:28:57;;;;;;;13.70;12.20;;;;;;;23.80;59.85;97945.75;8282678;28;20440;-73
2022/08/20 09:33:01;;;;;;;14.00;12.63;;;;;;;23.77;60.57;97951.28;8282536;28;20235;-73
2022/08/20 09:37:05;;;;;;;16.80;13.80;;;;;;;23.71;59.92;97945.81;8282491;28;20242;-72
2022/08/20 09:41:08;;;;;;;15.47;11.80;;;;;;;23.75;59.68;97947.16;8282417;28;20238;-73
2022/08/20 09:45:12;;;;;;;15.30;12.87;;;;;;;23.74;59.16;97941.03;8282362;28;20238;-73
2022/08/20 09:49:14;;;;;;;15.60;12.90;;;;;;;23.74;60.06;97941.03;8282304;28;20230;-73
2022/08/20 09:53:20;;;;;;;18.23;13.83;;;;;;;23.81;59.26;97941.28;8282040;28;20426;-72
2022/08/20 09:57:22;;;;;;;15.37;13.87;;;;;;;23.78;59.76;97931.00;8282160;28;20408;-72
2022/08/20 10:01:25;;;;;;;15.10;13.07;;;;;;;23.97;59.03;97937.94;8282194;28;20450;-72
2022/08/20 10:05:28;;;;;;;14.23;12.70;;;;;;;24.04;60.80;97941.63;8281959;28;20242;-72
2022/08/20 10:09:33;;;;;;;17.83;14.50;;;;;;;24.06;58.26;97939.66;8281903;28;20523;-72
2022/08/20 10:13:36;;;;;;;15.13;12.90;;;;;;;24.12;59.56;97944.34;8284896;28;20243;-72
2022/08/20 10:17:39;;;;;;;16.77;13.80;;;;;;;24.21;58.45;97934.63;8288413;28;20532;-72
2022/08/20 10:21:42;;;;;;;23.73;13.20;;;;;;;24.36;58.39;97935.72;8288664;28;20550;-72
2022/08/20 10:25:46;;;;;;;14.97;13.37;;;;;;;24.29;60.43;97937.31;8287837;28;20271;-72
2022/08/20 10:29:49;;;;;;;16.13;14.13;;;;;;;24.38;58.86;97936.41;8287782;28;20242;-72
2022/08/20 10:33:52;;;;;;;15.10;12.37;;;;;;;24.49;58.45;97934.50;8288089;28;20329;-73
2022/08/20 10:37:54;;;;;;;14.97;13.47;;;;;;;24.62;58.97;97937.56;8287877;28;20239;-72
2022/08/20 10:41:59;;;;;;;17.37;13.87;;;;;;;24.57;56.53;97937.19;8287917;28;20328;-72
2022/08/20 10:46:02;;;;;;;16.10;12.83;;;;;;;24.68;56.20;97931.63;8287730;28;20238;-72
2022/08/20 10:50:08;;;;;;;14.03;11.57;;;;;;;25.00;55.18;97926.63;8287444;28;20235;-73
2022/08/20 10:54:10;;;;;;;15.63;12.67;;;;;;;25.09;54.01;97929.16;8287478;28;20237;-72
2022/08/20 10:58:16;;;;;;;16.93;12.53;;;;;;;25.11;53.08;97932.47;8287338;28;20238;-73
2022/08/20 11:02:19;;;;;;;15.50;11.23;;;;;;;25.27;54.11;97930.88;8287270;28;20231;-73
2022/08/20 11:06:22;;;;;;;18.63;13.17;;;;;;;25.08;52.61;97932.78;8287186;28;20308;-72
2022/08/20 11:10:26;;;;;;;21.20;12.80;;;;;;;25.16;52.26;97939.94;8286993;28;20537;-73
2022/08/20 11:14:30;;;;;;;14.80;11.83;;;;;;;25.39;52.25;97929.56;8286838;28;20233;-72
2022/08/20 11:18:33;;;;;;;14.80;12.00;;;;;;;25.61;51.81;97930.78;8286899;28;20243;-73
2022/08/20 11:22:36;;;;;;;19.03;13.10;;;;;;;26.04;50.71;97926.16;8286717;28;20240;-73
2022/08/20 11:26:38;;;;;;;15.77;12.50;;;;;;;26.06;51.11;97923.34;8285611;28;20257;-73
2022/08/20 11:30:43;;;;;;;15.70;12.40;;;;;;;26.00;49.77;97919.53;8286711;28;20244;-73
2022/08/20 11:34:46;;;;;;;14.63;11.93;;;;;;;26.45;48.65;97920.78;8286104;28;20239;-73
2022/08/20 11:38:49;;;;;;;16.70;11.10;;;;;;;26.69;49.33;97916.41;8285911;28;20409;-72
2022/08/20 11:42:52;;;;;;;13.20;10.50;;;;;;;27.09;47.55;97909.25;8285983;28;20237;-72
2022/08/20 11:47:22;;;;;;;16.33;11.60;;;;;;;27.04;45.22;97908.97;8285744;28;20233;-73
2022/08/20 11:51:25;;;;;;;15.70;11.00;;;;;;;27.31;45.41;97907.69;8286021;28;20239;-73
2022/08/20 11:55:29;;;;;;;20.73;10.87;;;;;;;26.99;46.94;97912.13;8285179;28;20440;-73
2022/08/20 11:59:34;;;;;;;13.97;10.63;;;;;;;26.65;47.92;97910.59;8285553;28;20464;-73
2022/08/20 12:03:38;;;;;;;17.10;10.87;;;;;;;26.34;49.58;97910.53;8285505;28;20235;-73
2022/08/20 12:07:41;;;;;;;14.50;11.70;;;;;;;25.93;49.22;97911.41;8285257;28;20235;-73
2022/08/20 12:11:44;;;;;;;11.07;9.83;;;;;;;25.91;48.86;97912.53;8285246;28;20348;-73
2022/08/20 12:15:49;;;;;;;12.67;10.40;;;;;;;25.90;49.22;97914.38;8284663;28;20239;-72
2022/08/20 12:19:54;;;;;;;11.70;10.10;;;;;;;25.87;49.51;97920.00;8284821;28;20245;-72
2022/08/20 12:23:57;;;;;;;13.67;11.53;;;;;;;25.79;49.79;97914.69;8284857;28;20250;-72
2022/08/20 12:28:00;;;;;;;10.77;9.67;;;;;;;25.62;51.75;97924.47;8284641;28;20443;-73
2022/08/20 12:32:05;;;;;;;17.87;13.23;;;;;;;24.89;54.27;97927.75;8284485;28;20243;-73
2022/08/20 12:36:10;;;;;;;16.93;13.10;;;;;;;24.78;55.55;97916.44;8284228;28;20237;-72
2022/08/20 12:40:15;;;;;;;20.53;13.50;;;;;;;24.89;56.21;97920.63;8284142;28;20235;-72
2022/08/20 12:44:26;;;;;;;17.47;12.03;;;;;;;25.07;56.14;97914.41;8284166;28;20302;-73
2022/08/20 12:48:29;;;;;;;17.00;13.40;;;;;;;25.21;56.63;97921.72;8284095;28;20238;-73
2022/08/20 12:52:33;;;;;;;16.00;10.57;;;;;;;25.38;55.91;97930.59;8283868;28;20236;-73
2022/08/20 12:56:37;;;;;;;10.67;8.10;;;;;;;25.39;54.72;97923.44;8283760;28;20233;-73
2022/08/20 13:00:43;;;;;;;7.43;5.73;;;;;;;25.47;53.57;97926.94;8283500;28;20241;-73
2022/08/20 13:04:52;;;;;;;5.63;4.87;;;;;;;25.50;52.95;97923.97;8283227;28;20247;-72
2022/08/20 13:08:58;;;;;;;7.30;5.50;;;;;;;25.61;52.12;97922.81;8283528;28;20583;-73
2022/08/20 13:13:01;;;;;;;9.30;7.10;;;;;;;25.73;51.83;97928.63;8283198;28;20535;-72
2022/08/20 13:17:05;;;;;;;9.83;7.20;;;;;;;25.69;53.14;97916.69;8282775;28;20250;-72
2022/08/20 13:21:08;;;;;;;7.50;6.63;;;;;;;25.64;55.07;97914.53;8283204;28;20421;-72
2022/08/20 13:25:12;;;;;;;12.90;10.13;;;;;;;25.53;53.71;97917.50;8282660;28;20246;-72
2022/08/20 13:29:17;;;;;;;15.10;11.27;;;;;;;25.47;52.88;97916.31;8282937;28;20417;-72
2022/08/20 13:33:20;;;;;;;14.33;10.70;;;;;;;25.48;53.46;97909.22;8282885;28;20529;-73
2022/08/20 13:37:26;;;;;;;13.83;11.77;;;;;;;25.56;54.19;97901.28;8282532;28;20244;-72
2022/08/20 13:41:30;;;;;;;13.03;10.00;;;;;;;25.58;54.38;97901.94;8282457;28;20240;-73
2022/08/20 13:45:32;;;;;;;12.23;10.93;;;;;;;25.49;53.58;97894.97;8282615;28;20238;-73
2022/08/20 13:49:35;;;;;;;14.27;11.60;;;;;;;25.52;52.79;97886.69;8281872;28;20244;-73
2022/08/20 13:53:38;;;;;;;13.50;11.40;;;;;;;25.50;52.34;97888.69;8282450;28;20236;-73
2022/08/20 13:57:44;;;;;;;16.63;11.43;;;;;;;25.37;53.84;97889.16;8282204;28;20353;-73
2022/08/20 14:01:47;;;;;;;12.07;10.77;;;;;;;25.39;54.19;97889.81;8282217;28;20241;-72
2022/08/20 14:05:50;;;;;;;12.63;11.37;;;;;;;25.36;54.95;97892.81;8281617;28;20244;-73
2022/08/20 14:09:56;;;;;;;12.00;10.70;;;;;;;25.20;56.82;97896.22;8281629;28;20245;-73
2022/08/20 14:14:01;;;;;;;10.50;7.80;;;;;;;25.32;56.43;97902.91;8281867;28;20240;-72
2022/08/20 14:18:04;;;;;;;8.60;7.80;;;;;;;25.28;56.80;97893.59;8281593;28;20244;-72
2022/08/20 14:22:07;;;;;;;8.00;6.80;;;;;;;25.36;56.17;97896.28;8281663;28;20248;-72
2022/08/20 14:26:09;;;;;;;7.03;6.43;;;;;;;25.52;56.13;97894.63;8281345;28;20232;-72
2022/08/20 14:30:16;;;;;;;8.80;6.13;;;;;;;25.83;56.23;97896.63;8281419;28;20241;-73
2022/08/20 14:34:19;;;;;;;9.00;6.03;;;;;;;26.36;54.27;97897.91;8281283;28;20259;-72
2022/08/20 14:38:22;;;;;;;6.70;6.00;;;;;;;26.81;53.24;97891.13;8281177;28;20237;-73
2022/08/20 14:42:26;;;;;;;6.37;5.70;;;;;;;27.09;51.77;97890.66;8281111;28;20246;-73
2022/08/20 14:46:31;;;;;;;8.57;6.47;;;;;;;27.15;50.45;97895.28;8281290;28;20251;-73
2022/08/20 14:50:35;;;;;;;7.23;5.83;;;;;;;27.45;49.22;97898.91;8281229;28;20298;-73
2022/08/20 14:54:39;;;;;;;6.60;5.90;;;;;;;26.66;49.33;97901.66;8281028;28;20240;-73
2022/08/20 14:58:41;;;;;;;5.87;5.37;;;;;;;26.42;51.57;97904.34;8280864;28;20237;-74
2022/08/20 15:02:46;;;;;;;6.70;5.33;;;;;;;26.22;50.80;97899.44;8287080;28;20241;-73
2022/08/20 15:06:49;;;;;;;5.40;4.90;;;;;;;25.98;52.48;97908.25;8286706;28;20244;-73
2022/08/20 15:10:56;;;;;;;6.43;5.30;;;;;;;25.80;53.75;97910.22;8286666;28;20238;-73
2022/08/20 15:14:59;;;;;;;8.53;4.60;;;;;;;25.72;54.45;97909.25;8286304;28;20242;-73
2022/08/20 15:19:18;;;;;;;5.63;4.30;;;;;;;25.56;54.35;97902.09;8286418;28;20242;-74
2022/08/20 15:23:21;;;;;;;5.30;4.80;;;;;;;25.38;54.50;97905.88;8286555;28;20245;-73
2022/08/20 15:27:25;;;;;;;9.63;5.10;;;;;;;25.30;58.08;97901.41;8286322;28;20248;-74
2022/08/20 15:31:28;;;;;;;5.63;4.50;;;;;;;25.35;58.69;97899.91;8286287;28;20239;-73
2022/08/20 15:35:32;;;;;;;5.43;4.70;;;;;;;25.25;58.24;97896.59;8286048;28;20419;-73
2022/08/20 15:39:35;;;;;;;6.63;4.90;;;;;;;25.13;59.84;97903.16;8286199;28;20242;-73
2022/08/20 15:43:38;;;;;;;6.33;4.70;;;;;;;25.20;59.00;97903.34;8285535;28;20233;-73
2022/08/20 15:47:49;;;;;;;5.37;4.83;;;;;;;25.27;59.54;97904.38;8285683;28;20240;-74
2022/08/20 15:51:53;;;;;;;7.60;5.47;;;;;;;25.18;59.17;97906.16;8284876;28;20234;-73
2022/08/20 15:56:03;;;;;;;3.67;2.77;;;;;;;25.15;57.07;97911.75;8285515;28;20242;-73
2022/08/20 16:00:12;;;;;;;1.70;1.60;;;;;;;24.93;53.72;97905.25;8285346;28;20228;-73
2022/08/20 16:04:32;;;;;;;1.60;1.50;;;;;;;24.89;53.55;97907.38;8285361;28;20523;-74
2022/08/20 16:08:46;;;;;;;1.60;1.50;;;;;;;24.93;54.09;97907.91;8285017;28;20245;-73
2022/08/20 16:12:51;;;;;;;2.03;1.70;;;;;;;24.84;52.88;97908.84;8283990;28;20233;-73
2022/08/20 16:16:57;;;;;;;6.30;1.90;;;;;;;24.74;53.49;97917.75;8284926;28;20241;-73
2022/08/20 16:21:08;;;;;;;3.07;1.60;;;;;;;24.81;53.75;97922.41;8284786;28;20247;-73
2022/08/20 16:25:14;;;;;;;5.67;2.67;;;;;;;24.75;57.17;97916.78;8284481;28;20242;-73
2022/08/20 16:29:19;;;;;;;3.53;2.60;;;;;;;24.69;57.71;97914.75;8284234;28;20509;-73
2022/08/20 16:33:26;;;;;;;3.83;2.57;;;;;;;24.68;57.35;97913.09;8284384;28;20431;-73
2022/08/20 16:37:34;;;;;;;3.33;2.23;;;;;;;24.67;57.80;97914.06;8284119;28;20246;-73
2022/08/20 16:41:40;;;;;;;3.27;2.90;;;;;;;24.73;57.04;97920.56;8284112;28;20243;-73
2022/08/20 16:45:57;;;;;;;4.07;3.00;;;;;;;24.81;57.64;97920.63;8283981;28;20239;-74
2022/08/20 16:50:06;;;;;;;5.37;3.60;;;;;;;24.81;58.90;97915.31;8283649;28;20436;-74
2022/08/20 16:54:10;;;;;;;9.10;4.47;;;;;;;24.75;60.42;97926.53;8283750;28;20243;-73
2022/08/20 16:58:14;;;;;;;7.30;4.63;;;;;;;24.64;60.08;97930.31;8283429;28;20248;-74
2022/08/20 17:02:19;;;;;;;7.83;4.83;;;;;;;24.68;59.32;97931.63;8283389;28;20236;-73
2022/08/20 17:06:26;;;;;;;5.63;3.80;;;;;;;24.39;58.82;97939.91;8283406;28;20240;-73
2022/08/20 17:10:33;;;;;;;7.30;3.80;;;;;;;24.53;59.36;97943.81;8283346;28;20544;-73
2022/08/20 17:14:43;;;;;;;5.10;3.80;;;;;;;24.22;58.40;97938.09;8282972;28;20243;-73
2022/08/20 17:18:53;;;;;;;3.37;2.80;;;;;;;24.16;57.95;97955.44;8282525;28;20246;-73
2022/08/20 17:23:09;;;;;;;4.67;3.40;;;;;;;23.89;56.66;97954.56;8281962;28;20229;-73
2022/08/20 17:27:15;;;;;;;2.93;2.63;;;;;;;24.11;56.62;97958.56;8282467;28;20520;-73
2022/08/20 17:31:30;;;;;;;4.20;2.80;;;;;;;24.20;56.50;97973.50;8282541;28;20251;-73
2022/08/20 17:35:42;;;;;;;4.07;2.67;;;;;;;24.17;57.38;97979.09;8282431;28;20236;-73
2022/08/20 17:39:47;;;;;;;5.47;3.20;;;;;;;23.94;56.59;97977.91;8282195;28;20241;-73
2022/08/20 17:43:56;;;;;;;5.17;3.10;;;;;;;23.94;57.22;97973.44;8281728;28;20239;-73
2022/08/20 17:48:01;;;;;;;4.53;2.97;;;;;;;23.97;58.36;97985.53;8282194;28;20246;-73
2022/08/20 17:52:07;;;;;;;4.70;3.20;;;;;;;23.95;58.05;97991.00;8282111;28;20406;-73
2022/08/20 17:56:16;;;;;;;4.37;3.27;;;;;;;23.85;58.05;98000.81;8281837;28;20236;-73
2022/08/20 18:00:23;;;;;;;5.57;3.50;;;;;;;23.87;58.27;98001.47;8281632;28;20229;-73
2022/08/20 18:04:30;;;;;;;6.77;3.53;;;;;;;23.90;59.38;97997.72;8281611;28;20239;-73
2022/08/20 18:08:38;;;;;;;5.63;3.70;;;;;;;23.89;59.20;97993.41;8281629;28;20233;-73
2022/08/20 18:12:47;;;;;;;5.17;3.87;;;;;;;23.83;59.07;97992.19;8281827;28;20252;-73
2022/08/20 18:17:04;;;;;;;5.50;3.97;;;;;;;23.76;59.57;97985.81;8281021;28;20241;-73
2022/08/20 18:21:51;;;;;;;6.53;4.37;;;;;;;23.71;59.77;97977.53;8281553;28;20241;-72
2022/08/20 18:26:00;;;;;;;8.47;6.70;;;;;;;23.66;59.48;97972.66;8269712;28;20246;-72
2022/08/20 18:30:04;;;;;;;5.70;4.57;;;;;;;23.61;59.64;97975.78;8281403;28;20242;-72
2022/08/20 18:34:11;;;;;;;6.37;4.57;;;;;;;23.60;59.28;97979.38;8283682;28;20258;-72
2022/08/20 18:38:27;;;;;;;5.27;3.80;;;;;;;23.60;60.32;97981.22;8287708;28;20247;-72
2022/08/20 18:42:33;;;;;;;5.77;3.80;;;;;;;23.61;60.45;97985.53;8287715;28;20235;-72
2022/08/20 18:46:37;;;;;;;8.83;3.70;;;;;;;23.60;60.43;97989.13;8287520;28;20244;-72
2022/08/20 18:50:44;;;;;;;5.80;4.77;;;;;;;23.54;60.84;97985.28;8287514;28;20242;-72
2022/08/20 18:54:52;;;;;;;6.13;4.50;;;;;;;23.50;60.69;97993.66;8287011;28;20508;-72
2022/08/20 18:59:00;;;;;;;5.23;4.57;;;;;;;23.45;61.81;97994.09;8286312;28;20239;-72
2022/08/20 19:03:30;;;;;;;6.10;4.70;;;;;;;23.42;61.54;97997.88;8287304;28;20246;-73